Almo, Kentucky
Current Conditions -  °F | °C
As of 8:35 AM on Sunday 23 Nov 2014 (Local Time) from KCEY Reporting Station
Overcast Overcast  
Wind Chill: 55°   Ceiling: 1800
Heat Index: 55°   Visibility: 10mi
Dew Point: 48°   Wind: 10mph
Humidity: 77%   Direction: 140°SE
Pressure: 29.77"   Gusts: 20mph
Location:  36.69°N, 88.28°W
Report Text: KCEY 231435Z AUTO 14009G17KT 10SM OVC018 13/09 A2977 RMK AO1
Loading
Personal Weather Stations






























Interactive Weather Map New forecast layout! Learn more

10-Day Weather Forecast

Advertisements
Track Severe Weather on mobile